デリー の空港の天気 - METARとTAF

インディラ・ガンディー国際空港 ( VIDP / DEL ) - インド デリー
飛行場実況気象(Metar)
観測時間01/20 23:00 IST (01/20 17:30 UTC)
風向・風速西 2m/s
視程600m
天気現象地霧
なし
気温9℃
湿度87%
気圧1020hPa
METARVIDP 201730Z 28003KT 0600 R28/2000 R29/1600 MIFG NSC 09/07 Q1020 NOSIG
過去の天気等 Google飛行場航空写真 Wunderground天気予報

過去48時間のMETAR

飛行場予報(TAF)
発表時間: 1/20 22:30 IST (1/20 17:00 UTC)
予報対象時間: 20日23時 IST ~ 22日5時 IST
風向・風速西南西 2m/s
視程600m
天気現象地霧
なし
21日4時 IST ~ 21日6時 IST に徐々に
風向・風速不定 1m/s
視程50m
天気現象
21日9時 IST ~ 21日11時 IST に徐々に
風向・風速西南西 3m/s
視程700m
天気現象地霧
少しの雲 雲底高度 3,050m
21日13時 IST ~ 21日15時 IST に徐々に
風向・風速北西 4m/s
視程2,000m
天気現象
全天の4割程度の雲 雲底高度 3,050m
21日20時 IST ~ 21日22時 IST に徐々に
風向・風速西南西 2m/s
視程800m
天気現象地霧
22日2時 IST ~ 22日4時 IST に徐々に
風向・風速静穏
視程200m
天気現象
TAF VIDP 201700Z 2018/2124 24003KT 0600 MIFG NSC
BECMG 2023/2101 VRB02KT 0050 FG VV///
BECMG 2104/2106 25005KT 0700 MIFG FEW100
BECMG 2108/2110 31008KT 2000 FU SCT100
BECMG 2115/2117 25004KT 0800 MIFG
BECMG 2121/2123 00000KT 0200 FG